Terminal Aerodrome Forecast
Issued by NWS

Home | Current Version | Previous Version | Text Only | Print | Product List | Glossary On
Versions: 1 2 3 4 5 6 7 8 9 10 11 12 13 14 15 16 17 18 19 20
000
FTUS46 KLOX 210841 AAB
TAFSBP
TAF AMD
KSBP 210841Z 2109/2206 VRB03KT 2SM BR BKN003
     FM210930 VRB03KT 1/2SM FG VV002
     FM211300 02006KT 3SM BR BKN004
     FM211500 VRB03KT P6SM SKC
     FM211800 32007KT P6SM SKC
     FM212100 32015KT P6SM SKC
     FM220300 32007KT P6SM SKC=

USA.gov is the U.S. government's official web portal to all federal, state and local government web resources and services.